createdAt,value
2019-01-11T00:00:09.046Z,-2.2
2019-01-11T00:00:59.141Z,-2.2
2019-01-11T00:01:48.613Z,-2.2
2019-01-11T00:02:38.941Z,-2.2
2019-01-11T00:03:28.729Z,-2.2
2019-01-11T00:04:19.343Z,-2.3
2019-01-11T00:05:09.429Z,-2.3
2019-01-11T00:05:59.442Z,-2.3
2019-01-11T00:06:49.507Z,-2.3
2019-01-11T00:07:39.279Z,-2.3
2019-01-11T00:08:29.343Z,-2.3
2019-01-11T00:09:19.673Z,-2.3
2019-01-11T00:10:09.453Z,-2.3
2019-01-11T00:10:59.521Z,-2.3
2019-01-11T00:11:49.846Z,-2.3
2019-01-11T00:12:39.613Z,-2.3
2019-01-11T00:13:29.956Z,-2.3
2019-01-11T00:14:20.018Z,-2.3
2019-01-11T00:15:09.798Z,-2.3
2019-01-11T00:15:59.872Z,-2.4
2019-01-11T00:34:23.324Z,-2.6
2019-01-11T00:35:13.561Z,-2.6
2019-01-11T00:36:03.615Z,-2.6
2019-01-11T00:36:53.723Z,-2.6
2019-01-11T00:37:43.464Z,-2.6
2019-01-11T00:38:33.496Z,-2.6
2019-01-11T00:39:23.554Z,-2.6
2019-01-11T00:40:13.336Z,-2.6
2019-01-11T00:41:03.948Z,-2.6
2019-01-11T00:41:54.044Z,-2.6
2019-01-11T00:42:43.776Z,-2.6
2019-01-11T00:43:34.101Z,-2.6
2019-01-11T00:44:23.896Z,-2.6
2019-01-11T00:45:13.934Z,-2.6
2019-01-11T00:46:04.001Z,-2.6
2019-01-11T00:46:54.063Z,-2.6
2019-01-11T00:47:43.841Z,-2.7
2019-01-11T00:48:34.453Z,-2.6
2019-01-11T00:49:24.215Z,-2.7
2019-01-11T00:50:14.287Z,-2.7
2019-01-11T00:51:04.071Z,-2.7
2019-01-11T00:51:54.391Z,-2.7
2019-01-11T00:52:44.725Z,-2.8
2019-01-11T00:53:34.507Z,-2.7
2019-01-11T00:54:24.569Z,-2.8
2019-01-11T00:55:14.909Z,-2.8
2019-01-11T00:56:04.995Z,-2.8
2019-01-11T00:56:54.513Z,-2.8
2019-01-11T00:57:44.512Z,-2.8
2019-01-11T00:58:35.123Z,-2.8
2019-01-11T00:59:25.173Z,-2.8
2019-01-11T01:00:15.251Z,-2.8
2019-01-11T01:01:05.020Z,-2.8
2019-01-11T01:01:54.527Z,-2.8
2019-01-11T01:02:44.877Z,-2.8
2019-01-11T01:03:35.458Z,-2.8
2019-01-11T01:04:25.244Z,-2.8
2019-01-11T01:05:15.032Z,-2.8
2019-01-11T01:06:05.692Z,-2.8
2019-01-11T01:06:55.692Z,-2.8
2019-01-11T01:07:45.240Z,-2.9
2019-01-11T01:08:35.531Z,-2.9
2019-01-11T01:09:25.862Z,-2.9
2019-01-11T01:10:15.683Z,-2.9
2019-01-11T01:11:05.423Z,-2.9
2019-01-11T01:11:56.076Z,-2.9
2019-01-11T01:12:45.537Z,-2.9
2019-01-11T01:13:35.866Z,-2.9
2019-01-11T01:14:26.263Z,-2.9
2019-01-11T01:15:16.034Z,-2.9
2019-01-11T01:16:06.032Z,-2.9
2019-01-11T01:16:56.369Z,-2.9
2019-01-11T01:17:46.416Z,-2.9
2019-01-11T01:18:36.220Z,-3
2019-01-11T01:19:26.536Z,-2.9
2019-01-11T01:20:16.334Z,-3
2019-01-11T01:21:06.694Z,-3
2019-01-11T01:21:56.769Z,-3
2019-01-11T01:22:46.764Z,-3
2019-01-11T01:23:36.553Z,-3
2019-01-11T01:24:26.605Z,-3.1
2019-01-11T01:25:16.926Z,-3.1
2019-01-11T01:26:06.994Z,-3.1
2019-01-11T01:26:56.783Z,-3.1
2019-01-11T01:27:46.828Z,-3.1
2019-01-11T01:28:36.944Z,-3.1
2019-01-11T01:29:26.980Z,-3.1
2019-01-11T01:30:17.287Z,-3.1
2019-01-11T01:31:07.380Z,-3.1
2019-01-11T01:31:57.378Z,-3.2
2019-01-11T01:32:47.450Z,-3.2
2019-01-11T01:33:36.939Z,-3.2
2019-01-11T01:34:27.550Z,-3.2
2019-01-11T01:35:16.806Z,-3.2
2019-01-11T01:36:07.110Z,-3.2
2019-01-11T01:36:57.725Z,-3.3
2019-01-11T01:37:47.773Z,-3.3
2019-01-11T01:38:37.835Z,-3.3
2019-01-11T01:39:27.885Z,-3.3
2019-01-11T01:40:17.958Z,-3.3
2019-01-11T01:41:07.785Z,-3.3
2019-01-11T01:41:58.066Z,-3.3
2019-01-11T01:42:48.125Z,-3.4
2019-01-11T01:43:38.182Z,-3.4
2019-01-11T01:44:27.690Z,-3.4
2019-01-11T01:45:17.785Z,-3.4
2019-01-11T01:46:08.087Z,-3.4
2019-01-11T01:46:58.393Z,-3.4
2019-01-11T01:47:48.182Z,-3.4
2019-01-11T01:48:38.253Z,-3.5
2019-01-11T01:49:28.506Z,-3.5
2019-01-11T01:50:18.087Z,-3.5
2019-01-11T01:51:08.681Z,-3.6
2019-01-11T01:51:58.746Z,-3.6
2019-01-11T01:52:48.247Z,-3.6
2019-01-11T01:53:38.862Z,-3.6
2019-01-11T01:54:28.654Z,-3.6
2019-01-11T01:55:18.695Z,-3.6
2019-01-11T01:56:09.044Z,-3.6
2019-01-11T01:56:58.805Z,-3.6
2019-01-11T01:57:49.134Z,-3.7
2019-01-11T01:58:39.185Z,-3.7
2019-01-11T01:59:29.241Z,-3.7
2019-01-11T02:03:39.571Z,-3.8
2019-01-11T02:04:29.593Z,-3.8
2019-01-11T02:05:19.381Z,-3.8
2019-01-11T02:06:09.146Z,-3.8
2019-01-11T02:06:59.483Z,-3.9
2019-01-11T02:07:49.819Z,-3.9
2019-01-11T02:08:39.875Z,-3.9
2019-01-11T02:09:29.098Z,-3.9
2019-01-11T02:10:19.713Z,-3.9
2019-01-11T02:11:10.043Z,-3.9
2019-01-11T02:12:00.101Z,-3.9
2019-01-11T02:12:50.166Z,-3.9
2019-01-11T02:13:39.943Z,-4
2019-01-11T02:14:29.998Z,-4
2019-01-11T02:15:20.043Z,-4
2019-01-11T02:16:09.836Z,-4
2019-01-11T02:17:00.150Z,-4
2019-01-11T02:17:49.933Z,-4.1
2019-01-11T02:18:40.550Z,-4.1
2019-01-11T02:19:34.950Z,-4.1
2019-01-11T02:20:20.150Z,-4.1
2019-01-11T02:21:10.167Z,-4.1
2019-01-11T02:22:00.237Z,-4.1
2019-01-11T02:22:50.574Z,-4.1
2019-01-11T02:23:40.886Z,-4.1
2019-01-11T02:24:30.950Z,-4.2
2019-01-11T02:25:20.455Z,-4.2
2019-01-11T02:26:10.298Z,-4.2
2019-01-11T02:27:00.640Z,-4.2
2019-01-11T02:27:50.735Z,-4.2
2019-01-11T02:28:40.964Z,-4.3
2019-01-11T02:29:30.472Z,-4.3
2019-01-11T02:30:21.101Z,-4.3
2019-01-11T02:31:11.449Z,-4.3
2019-01-11T02:32:01.462Z,-4.3
2019-01-11T02:32:54.897Z,-4.3
2019-01-11T02:33:41.564Z,-4.3
2019-01-11T02:34:31.358Z,-4.3
2019-01-11T02:35:21.464Z,-4.3
2019-01-11T02:36:11.193Z,-4.3
2019-01-11T02:37:01.878Z,-4.3
2019-01-11T02:37:51.582Z,-4.3
2019-01-11T02:38:41.916Z,-4.3
2019-01-11T02:39:31.702Z,-4.3
2019-01-11T02:40:22.013Z,-4.3
2019-01-11T02:41:11.534Z,-4.3
2019-01-11T02:42:02.168Z,-4.3
2019-01-11T02:42:51.662Z,-4.4
2019-01-11T02:43:41.972Z,-4.4
2019-01-11T02:44:33.337Z,-4.4
2019-01-11T02:45:21.815Z,-4.3
2019-01-11T02:46:11.852Z,-4.3
2019-01-11T02:47:02.195Z,-4.4
2019-01-11T02:47:52.254Z,-4.4
2019-01-11T02:48:42.583Z,-4.3
2019-01-11T02:49:32.649Z,-4.4
2019-01-11T02:50:22.724Z,-4.4
2019-01-11T02:51:12.547Z,-4.4
2019-01-11T02:52:03.068Z,-4.4
2019-01-11T02:52:52.924Z,-4.4
2019-01-11T02:53:42.925Z,-4.4
2019-01-11T02:54:32.707Z,-4.4
2019-01-11T02:55:23.059Z,-4.4
2019-01-11T02:56:13.093Z,-4.4
2019-01-11T02:57:02.612Z,-4.4
2019-01-11T02:57:53.200Z,-4.4
2019-01-11T02:58:43.002Z,-4.4
2019-01-11T02:59:33.332Z,-4.4
2019-01-11T03:00:23.114Z,-4.4
2019-01-11T03:01:12.891Z,-4.4
2019-01-11T03:02:03.005Z,-4.4
2019-01-11T03:02:53.275Z,-4.4
2019-01-11T03:03:43.074Z,-4.4
2019-01-11T03:04:33.662Z,-4.4
2019-01-11T03:05:23.445Z,-4.4
2019-01-11T03:06:13.501Z,-4.4
2019-01-11T03:07:03.277Z,-4.4
2019-01-11T03:07:53.342Z,-4.4
2019-01-11T03:08:43.660Z,-4.4
2019-01-11T03:09:33.722Z,-4.4
2019-01-11T03:10:23.239Z,-4.4
2019-01-11T03:11:14.109Z,-4.4
2019-01-11T03:12:03.909Z,-4.5
2019-01-11T03:12:54.223Z,-4.4
2019-01-11T03:13:44.329Z,-4.4
2019-01-11T03:14:33.844Z,-4.5
2019-01-11T03:15:24.146Z,-4.5
2019-01-11T03:16:14.186Z,-4.5
2019-01-11T03:17:04.506Z,-4.5
2019-01-11T03:17:54.287Z,-4.5
2019-01-11T03:18:44.344Z,-4.5
2019-01-11T03:19:33.867Z,-4.6
2019-01-11T03:20:24.471Z,-4.6
2019-01-11T03:21:14.785Z,-4.6
2019-01-11T03:22:04.844Z,-4.6
2019-01-11T03:22:54.911Z,-4.6
2019-01-11T03:23:44.986Z,-4.6
2019-01-11T03:24:34.768Z,-4.6
2019-01-11T03:25:24.251Z,-4.6
2019-01-11T03:26:15.138Z,-4.6
2019-01-11T03:27:04.918Z,-4.6
2019-01-11T03:27:55.252Z,-4.6
2019-01-11T03:28:45.303Z,-4.6
2019-01-11T03:29:35.952Z,-4.6
2019-01-11T03:30:24.902Z,-4.6
2019-01-11T03:31:15.517Z,-4.6
2019-01-11T03:32:05.034Z,-4.6
2019-01-11T03:32:54.847Z,-4.6
2019-01-11T03:33:45.367Z,-4.6
2019-01-11T03:34:35.699Z,-4.6
2019-01-11T03:35:25.603Z,-4.7
2019-01-11T03:36:15.553Z,-4.7
2019-01-11T03:37:05.888Z,-4.7
2019-01-11T03:37:55.934Z,-4.7
2019-01-11T03:38:45.707Z,-4.7
2019-01-11T03:39:35.771Z,-4.7
2019-01-11T03:40:25.839Z,-4.7
2019-01-11T03:41:15.877Z,-4.8
2019-01-11T03:42:06.220Z,-4.8
2019-01-11T03:42:56.275Z,-4.8
2019-01-11T03:43:46.058Z,-4.8
2019-01-11T03:44:36.098Z,-4.8
2019-01-11T03:45:26.172Z,-4.8
2019-01-11T03:46:16.511Z,-4.8
2019-01-11T03:47:06.274Z,-4.8
2019-01-11T03:47:56.614Z,-4.8
2019-01-11T03:48:46.431Z,-4.8
2019-01-11T03:49:36.719Z,-4.8
2019-01-11T03:50:26.507Z,-4.8
2019-01-11T03:51:16.287Z,-4.8
2019-01-11T03:52:06.613Z,-4.8
2019-01-11T03:52:56.679Z,-4.8
2019-01-11T03:53:46.709Z,-4.8
2019-01-11T03:54:36.827Z,-4.8
2019-01-11T03:55:27.103Z,-4.8
2019-01-11T03:56:17.180Z,-4.8
2019-01-11T03:57:06.949Z,-4.8
2019-01-11T03:57:57.018Z,-4.8
2019-01-11T03:58:47.059Z,-4.8
2019-01-11T03:59:37.436Z,-4.8
2019-01-11T04:00:27.165Z,-4.8
2019-01-11T04:01:16.706Z,-4.8
2019-01-11T04:02:07.307Z,-4.8
2019-01-11T04:02:57.338Z,-4.8
2019-01-11T04:03:47.113Z,-4.8
2019-01-11T04:04:37.191Z,-4.8
2019-01-11T04:05:27.261Z,-4.8
2019-01-11T04:06:17.857Z,-4.8
2019-01-11T04:07:07.336Z,-4.8
2019-01-11T04:07:57.940Z,-4.8
2019-01-11T04:08:47.780Z,-4.8
2019-01-11T04:09:37.832Z,-4.8
2019-01-11T04:10:28.178Z,-4.8
2019-01-11T04:11:18.226Z,-4.8
2019-01-11T04:12:07.976Z,-4.8
2019-01-11T04:12:58.032Z,-4.8
2019-01-11T04:13:48.359Z,-4.8
2019-01-11T04:14:38.425Z,-4.8
2019-01-11T04:15:28.211Z,-4.8
2019-01-11T04:16:18.459Z,-4.8
2019-01-11T04:17:08.595Z,-4.9
2019-01-11T04:17:58.079Z,-4.8
2019-01-11T04:18:48.681Z,-4.9
2019-01-11T04:19:38.748Z,-4.8
2019-01-11T04:20:28.535Z,-4.8
2019-01-11T04:21:18.313Z,-4.8
2019-01-11T04:22:08.929Z,-4.8
2019-01-11T04:22:58.692Z,-4.8
2019-01-11T04:23:48.571Z,-4.8
2019-01-11T04:24:39.134Z,-4.8
2019-01-11T04:25:29.225Z,-4.8
2019-01-11T04:26:18.930Z,-4.8
2019-01-11T04:27:09.260Z,-4.8
2019-01-11T04:27:59.042Z,-4.8
2019-01-11T04:28:49.378Z,-4.8
2019-01-11T04:29:38.874Z,-4.8
2019-01-11T04:30:29.209Z,-4.8
2019-01-11T04:31:19.234Z,-4.8
2019-01-11T04:32:09.317Z,-4.8
2019-01-11T04:32:59.678Z,-4.8
2019-01-11T04:33:49.442Z,-4.8
2019-01-11T04:34:39.489Z,-4.8
2019-01-11T04:35:29.827Z,-4.8
2019-01-11T04:36:19.879Z,-4.8
2019-01-11T04:37:09.661Z,-4.8
2019-01-11T04:37:59.984Z,-4.8
2019-01-11T04:38:49.764Z,-4.9
2019-01-11T04:39:39.882Z,-4.9
2019-01-11T04:40:35.940Z,-4.9
2019-01-11T04:41:19.948Z,-4.9
2019-01-11T04:42:09.998Z,-4.9
2019-01-11T04:43:00.049Z,-4.9
2019-01-11T04:43:50.379Z,-4.9
2019-01-11T04:44:40.448Z,-4.9
2019-01-11T04:45:30.356Z,-4.9
2019-01-11T04:46:20.286Z,-4.9
2019-01-11T05:03:39.859Z,-5
2019-01-11T05:04:30.398Z,-4.9
2019-01-11T05:05:21.912Z,-4.9
2019-01-11T05:07:52.089Z,-4.9
2019-01-11T05:08:27.273Z,-4.9
2019-01-11T05:09:39.537Z,-5
2019-01-11T05:10:28.661Z,-4.9
2019-01-11T05:11:33.343Z,-5
2019-01-11T05:12:20.589Z,-5
2019-01-11T09:19:48.733Z,-0.9
2019-01-11T09:20:39.048Z,-0.9
2019-01-11T09:21:29.136Z,-0.9
2019-01-11T09:22:19.163Z,-0.9
2019-01-11T09:23:08.950Z,-0.8
2019-01-11T09:23:59.013Z,-0.8
2019-01-11T09:24:49.085Z,-0.8
2019-01-11T09:25:39.143Z,-0.8
2019-01-11T09:26:29.160Z,-0.8
2019-01-11T09:27:18.942Z,-0.8
2019-01-11T09:28:09.575Z,-0.8
2019-01-11T09:28:59.605Z,-0.8
2019-01-11T09:29:49.385Z,-0.7
2019-01-11T09:30:39.452Z,-0.7
2019-01-11T09:31:29.493Z,-0.7
2019-01-11T09:32:19.845Z,-0.7
2019-01-11T09:33:09.885Z,-0.7
2019-01-11T09:33:59.940Z,-0.6
2019-01-11T09:34:49.465Z,-0.6
2019-01-11T09:35:39.770Z,-0.6
2019-01-11T09:36:29.893Z,-0.6
2019-01-11T09:37:19.887Z,-0.6
2019-01-11T09:38:09.895Z,-0.6
2019-01-11T09:39:00.285Z,-0.6
2019-01-11T09:39:50.333Z,-0.6
2019-01-11T09:40:39.859Z,-0.6
2019-01-11T09:41:30.176Z,-0.6
2019-01-11T09:42:20.271Z,-0.5
2019-01-11T09:43:10.297Z,-0.5
2019-01-11T09:44:00.072Z,-0.5
2019-01-11T09:44:50.409Z,-0.5
2019-01-11T09:45:40.456Z,-0.5
2019-01-11T09:46:30.793Z,-0.5
2019-01-11T09:47:20.834Z,-0.5
2019-01-11T09:48:10.897Z,-0.5
2019-01-11T09:49:00.957Z,-0.5
2019-01-11T09:49:51.009Z,-0.5
2019-01-11T09:50:41.128Z,-0.5
2019-01-11T09:51:30.847Z,-0.5
2019-01-11T09:52:20.904Z,-0.4
2019-01-11T09:53:10.971Z,-0.4
2019-01-11T09:54:01.294Z,-0.4
2019-01-11T09:54:51.346Z,-0.4
2019-01-11T09:55:41.126Z,-0.4
2019-01-11T09:56:31.183Z,-0.4
2019-01-11T09:57:21.521Z,-0.4
2019-01-11T09:58:11.581Z,-0.4
2019-01-11T09:59:01.356Z,-0.4
2019-01-11T09:59:51.396Z,-0.4
2019-01-11T10:00:41.482Z,-0.4
2019-01-11T10:01:31.806Z,-0.4
2019-01-11T10:02:21.880Z,-0.4
2019-01-11T10:03:11.921Z,-0.4
2019-01-11T10:04:01.980Z,-0.4
2019-01-11T10:04:52.015Z,-0.4
2019-01-11T10:05:41.801Z,-0.4
2019-01-11T10:06:32.135Z,-0.4
2019-01-11T10:07:22.203Z,-0.4
2019-01-11T10:08:12.243Z,-0.4
2019-01-11T10:09:02.303Z,-0.4
2019-01-11T10:09:52.365Z,-0.4
2019-01-11T10:10:42.131Z,-0.4
2019-01-11T10:11:32.467Z,-0.4
2019-01-11T10:12:22.250Z,-0.4
2019-01-11T10:13:12.030Z,-0.4
2019-01-11T10:14:02.680Z,-0.4
2019-01-11T10:14:52.708Z,-0.4
2019-01-11T10:15:42.755Z,-0.4
2019-01-11T10:16:32.807Z,-0.4
2019-01-11T10:17:22.592Z,-0.4
2019-01-11T10:18:12.918Z,-0.4
2019-01-11T10:19:02.715Z,-0.4
2019-01-11T10:19:52.795Z,-0.4
2019-01-11T10:20:42.815Z,-0.4
2019-01-11T10:21:32.590Z,-0.4
2019-01-11T10:22:23.207Z,-0.4
2019-01-11T10:23:13.249Z,-0.4
2019-01-11T10:24:03.050Z,-0.4
2019-01-11T10:24:53.377Z,-0.4
2019-01-11T10:25:42.872Z,-0.3
2019-01-11T10:26:33.505Z,-0.3
2019-01-11T10:27:22.987Z,-0.3
2019-01-11T10:28:13.586Z,-0.3
2019-01-11T10:29:03.374Z,-0.3
2019-01-11T10:29:53.426Z,-0.3
2019-01-11T10:30:43.756Z,-0.3
2019-01-11T10:31:33.819Z,-0.3
2019-01-11T10:32:23.319Z,-0.3
2019-01-11T10:33:13.379Z,-0.3
2019-01-11T10:34:03.989Z,-0.3
2019-01-11T10:34:53.761Z,-0.3
2019-01-11T10:35:44.109Z,-0.3
2019-01-11T10:36:33.874Z,-0.3
2019-01-11T10:37:24.199Z,-0.3
2019-01-11T10:38:14.001Z,-0.3
2019-01-11T10:39:04.311Z,-0.3
2019-01-11T10:39:54.363Z,-0.3
2019-01-11T10:40:44.433Z,-0.3
2019-01-11T10:41:34.481Z,-0.3
2019-01-11T10:42:24.265Z,-0.3
2019-01-11T10:43:14.593Z,-0.3
2019-01-11T10:44:04.386Z,-0.3
2019-01-11T10:44:54.698Z,-0.3
2019-01-11T10:45:44.478Z,-0.3
2019-01-11T10:46:34.545Z,-0.3
2019-01-11T10:47:24.877Z,-0.3
2019-01-11T10:48:14.946Z,-0.3
2019-01-11T10:49:05.000Z,-0.3
2019-01-11T10:49:55.045Z,-0.3
2019-01-11T10:50:45.132Z,-0.3
2019-01-11T10:51:35.155Z,-0.3
2019-01-11T10:52:24.943Z,-0.3
2019-01-11T10:53:14.997Z,-0.3
2019-01-11T10:54:05.047Z,-0.3
2019-01-11T10:54:55.105Z,-0.3
2019-01-11T10:55:45.160Z,-0.3
2019-01-11T10:56:35.485Z,-0.3
2019-01-11T10:57:25.545Z,-0.3
2019-01-11T10:58:15.342Z,-0.3
2019-01-11T10:59:05.670Z,-0.3
2019-01-11T10:59:55.724Z,-0.3
2019-01-11T11:00:45.830Z,-0.3
2019-01-11T11:01:35.827Z,-0.3
2019-01-11T11:02:25.607Z,-0.3
2019-01-11T11:03:15.946Z,-0.2
2019-01-11T11:04:05.454Z,-0.2
2019-01-11T11:04:55.492Z,-0.2
2019-01-11T11:05:46.162Z,-0.2
2019-01-11T11:06:35.629Z,-0.2
2019-01-11T11:07:26.277Z,-0.2
2019-01-11T11:08:16.274Z,-0.2
2019-01-11T11:09:06.354Z,-0.2
2019-01-11T11:09:56.124Z,-0.2
2019-01-11T11:10:46.167Z,-0.2
2019-01-11T11:11:36.224Z,-0.1
2019-01-11T11:12:26.554Z,-0.1
2019-01-11T11:13:16.616Z,-0.1
2019-01-11T11:14:06.455Z,-0.1
2019-01-11T11:14:56.444Z,-0.1
2019-01-11T11:15:46.794Z,-0.1
2019-01-11T11:16:36.594Z,-0.1
2019-01-11T11:17:26.898Z,-0.1
2019-01-11T11:18:16.956Z,-0.1
2019-01-11T11:19:06.999Z,-0.1
2019-01-11T11:19:56.843Z,-0.1
2019-01-11T11:20:46.844Z,-0.1
2019-01-11T11:21:37.181Z,-0.1
2019-01-11T11:22:26.691Z,-0.1
2019-01-11T11:23:16.776Z,-0.1
2019-01-11T11:24:07.073Z,-0.1
2019-01-11T11:24:57.131Z,-0.1
2019-01-11T11:25:47.457Z,-0.1
2019-01-11T11:26:37.576Z,-0.1
2019-01-11T11:27:27.560Z,-0.1
2019-01-11T11:28:17.356Z,-0.1
2019-01-11T11:29:07.685Z,-0.1
2019-01-11T11:29:57.740Z,-0.1
2019-01-11T11:30:51.960Z,-0.1
2019-01-11T11:31:37.855Z,-0.1
2019-01-11T11:32:27.947Z,-0.1
2019-01-11T11:33:17.403Z,0
2019-01-11T11:34:08.015Z,0
2019-01-11T11:34:58.066Z,0
2019-01-11T11:35:47.849Z,0
2019-01-11T11:36:38.197Z,0
2019-01-11T11:37:28.243Z,0
2019-01-11T11:38:18.009Z,0
2019-01-11T11:39:08.348Z,0
2019-01-11T11:39:58.175Z,0
2019-01-11T11:40:48.202Z,0
2019-01-11T11:41:37.971Z,0
2019-01-11T11:42:28.582Z,-0.1
2019-01-11T11:43:18.631Z,-0.1
2019-01-11T11:44:08.689Z,-0.1
2019-01-11T11:44:58.739Z,-0.1
2019-01-11T11:45:48.539Z,0
2019-01-11T11:46:38.577Z,0
2019-01-11T11:47:28.414Z,0
2019-01-11T11:48:18.974Z,-0.1
2019-01-11T11:49:09.024Z,-0.1
2019-01-11T11:49:58.834Z,0
2019-01-11T11:50:48.866Z,0
2019-01-11T11:51:43.337Z,-0.1
2019-01-11T11:52:29.267Z,-0.1
2019-01-11T11:53:19.039Z,-0.1
2019-01-11T11:54:09.363Z,-0.1
2019-01-11T11:54:59.154Z,0
2019-01-11T11:55:49.189Z,0
2019-01-11T11:56:39.530Z,0
2019-01-11T11:57:29.584Z,-0.1
2019-01-11T11:58:19.648Z,0
2019-01-11T11:59:09.694Z,0
2019-01-11T11:59:59.531Z,0
2019-01-11T12:00:49.588Z,0
2019-01-11T12:01:39.868Z,0
2019-01-11T12:02:29.703Z,0
2019-01-11T12:03:19.716Z,0
2019-01-11T12:04:09.483Z,0
2019-01-11T12:04:59.813Z,0
2019-01-11T12:05:49.893Z,0
2019-01-11T12:06:39.948Z,0.1
2019-01-11T12:07:29.983Z,0.1
2019-01-11T12:08:20.033Z,0.1
2019-01-11T12:09:10.380Z,0.1
2019-01-11T12:10:00.423Z,0.1
2019-01-11T12:10:50.513Z,0.1
2019-01-11T12:11:39.988Z,0.1
2019-01-11T12:12:31.738Z,0.1
2019-01-11T12:13:20.648Z,0.1
2019-01-11T12:14:10.165Z,0.1
2019-01-11T12:14:59.950Z,0.1
2019-01-11T12:15:50.815Z,0.1
2019-01-11T12:16:40.873Z,0.1
2019-01-11T12:17:31.165Z,0.1
2019-01-11T12:18:20.992Z,0.1
2019-01-11T12:19:10.785Z,0.1
2019-01-11T12:20:00.906Z,0.1
2019-01-11T12:20:50.604Z,0.1
2019-01-11T12:21:40.942Z,0.1
2019-01-11T12:22:31.272Z,0.1
2019-01-11T12:23:21.049Z,0.1
2019-01-11T12:24:11.381Z,0.1
2019-01-11T12:25:00.902Z,0.2
2019-01-11T12:25:50.927Z,0.2
2019-01-11T12:26:41.594Z,0.1
2019-01-11T12:27:31.602Z,0.1
2019-01-11T12:28:21.407Z,0.1
2019-01-11T12:29:11.713Z,0.1
2019-01-11T12:30:01.547Z,0.2
2019-01-11T12:30:51.276Z,0.1
2019-01-11T12:31:41.341Z,0.2
2019-01-11T12:32:31.407Z,0.2
2019-01-11T12:33:21.539Z,0.2
2019-01-11T12:34:11.778Z,0.2
2019-01-11T12:35:01.847Z,0.2
2019-01-11T12:35:51.885Z,0.2
2019-01-11T12:36:41.941Z,0.2
2019-01-11T12:37:32.008Z,0.2
2019-01-11T12:38:22.206Z,0.2
2019-01-11T12:39:12.372Z,0.2
2019-01-11T12:40:02.460Z,0.2
2019-01-11T12:40:51.950Z,0.2
2019-01-11T12:41:42.564Z,0.2
2019-01-11T12:42:32.326Z,0.2
2019-01-11T12:43:22.670Z,0.2
2019-01-11T12:44:12.727Z,0.2
2019-01-11T12:45:02.808Z,0.2
2019-01-11T12:45:52.834Z,0.2
2019-01-11T12:46:42.617Z,0.2
2019-01-11T12:47:32.953Z,0.2
2019-01-11T12:48:22.733Z,0.3
2019-01-11T12:49:13.059Z,0.2
2019-01-11T12:50:03.140Z,0.2
2019-01-11T12:50:52.619Z,0.2
2019-01-11T12:51:42.955Z,0.2
2019-01-11T12:52:33.020Z,0.3
2019-01-11T12:53:23.375Z,0.3
2019-01-11T12:54:13.385Z,0.2
2019-01-11T12:55:02.989Z,0.3
2019-01-11T12:55:53.027Z,0.2
2019-01-11T12:56:43.280Z,0.3
2019-01-11T12:57:33.077Z,0.3
2019-01-11T12:58:23.407Z,0.3
2019-01-11T12:59:13.565Z,0.3
2019-01-11T13:00:03.527Z,0.3
2019-01-11T13:00:53.568Z,0.3
2019-01-11T13:01:43.144Z,0.3
2019-01-11T13:02:33.470Z,0.3
2019-01-11T13:03:24.007Z,0.3
2019-01-11T13:04:14.095Z,0.3
2019-01-11T13:05:03.174Z,0.3
2019-01-11T13:05:54.185Z,0.3
2019-01-11T13:06:43.975Z,0.3
2019-01-11T13:07:33.813Z,0.3
2019-01-11T13:08:23.869Z,0.3
2019-01-11T13:09:14.174Z,0.3
2019-01-11T13:10:03.516Z,0.3
2019-01-11T13:10:54.037Z,0.3
2019-01-11T13:11:44.097Z,0.2
2019-01-11T13:12:34.140Z,0.2
2019-01-11T13:13:24.206Z,0.2
2019-01-11T13:14:14.002Z,0.2
2019-01-11T13:15:04.312Z,0.2
2019-01-11T13:15:54.364Z,0.2
2019-01-11T13:16:43.696Z,0.1
2019-01-11T13:17:34.045Z,0.1
2019-01-11T13:18:24.076Z,0.1
2019-01-11T13:19:14.121Z,0.1
2019-01-11T13:20:04.185Z,0.1
2019-01-11T13:20:54.241Z,0.1
2019-01-11T13:21:44.323Z,0.1
2019-01-11T13:22:34.818Z,0.1
2019-01-11T13:23:24.881Z,0.1
2019-01-11T13:24:14.669Z,0.1
2019-01-11T13:25:04.733Z,0.1
2019-01-11T13:25:55.056Z,0
2019-01-11T13:26:45.103Z,0
2019-01-11T13:27:34.880Z,0
2019-01-11T13:28:24.933Z,0
2019-01-11T13:29:14.843Z,-0.1
2019-01-11T13:30:05.373Z,-0.1
2019-01-11T13:30:55.380Z,-0.1
2019-01-11T13:31:45.435Z,-0.1
2019-01-11T13:32:35.495Z,-0.1
2019-01-11T13:33:25.565Z,-0.1
2019-01-11T13:34:15.653Z,-0.1
2019-01-11T13:35:05.658Z,-0.1
2019-01-11T13:35:55.441Z,-0.2
2019-01-11T13:36:45.983Z,-0.2
2019-01-11T13:37:36.319Z,-0.2
2019-01-11T13:38:26.088Z,-0.3
2019-01-11T13:39:16.468Z,-0.3
2019-01-11T13:40:06.198Z,-0.3
2019-01-11T13:40:56.542Z,-0.3
2019-01-11T13:41:46.587Z,-0.3
2019-01-11T13:42:36.652Z,-0.3
2019-01-11T13:43:26.257Z,-0.3
2019-01-11T13:44:16.277Z,-0.3
2019-01-11T13:45:06.339Z,-0.3
2019-01-11T13:45:56.603Z,-0.3
2019-01-11T13:46:46.687Z,-0.3
2019-01-11T13:47:36.521Z,-0.3
2019-01-11T13:48:26.559Z,-0.3
2019-01-11T13:49:16.361Z,-0.4
2019-01-11T13:50:06.694Z,-0.4
2019-01-11T13:50:58.362Z,-0.4
2019-01-11T13:51:46.522Z,-0.4
2019-01-11T13:52:36.837Z,-0.4
2019-01-11T13:53:26.891Z,-0.4
2019-01-11T13:54:16.702Z,-0.4
2019-01-11T13:55:07.487Z,-0.4
2019-01-11T13:55:56.531Z,-0.4
2019-01-11T13:56:47.121Z,-0.4
2019-01-11T13:57:37.382Z,-0.4
2019-01-11T13:58:26.968Z,-0.4
2019-01-11T13:59:17.034Z,-0.5
2019-01-11T14:00:07.091Z,-0.4
2019-01-11T14:16:49.360Z,-0.6
2019-01-11T14:17:39.680Z,-0.6
2019-01-11T14:18:29.742Z,-0.6
2019-01-11T14:19:19.795Z,-0.6
2019-01-11T14:20:09.586Z,-0.6
2019-01-11T14:20:59.893Z,-0.6
2019-01-11T14:21:49.955Z,-0.7
2019-01-11T14:22:40.012Z,-0.6
2019-01-11T14:23:29.295Z,-0.7
2019-01-11T14:24:19.637Z,-0.7
2019-01-11T14:25:10.177Z,-0.7
2019-01-11T14:26:00.005Z,-0.7
2019-01-11T14:26:50.017Z,-0.7
2019-01-11T14:27:39.865Z,-0.7
2019-01-11T14:28:29.925Z,-0.7
2019-01-11T14:29:19.985Z,-0.8
2019-01-11T14:30:10.037Z,-0.8
2019-01-11T14:30:59.551Z,-0.8
2019-01-11T14:31:49.609Z,-0.8
2019-01-11T14:32:40.199Z,-0.8
2019-01-11T14:33:30.742Z,-0.8
2019-01-11T14:34:20.329Z,-0.8
2019-01-11T14:35:10.844Z,-0.8
2019-01-11T14:36:00.891Z,-0.9
2019-01-11T14:36:50.491Z,-0.9
2019-01-11T14:37:40.469Z,-0.9
2019-01-11T14:38:31.117Z,-0.9
2019-01-11T14:39:21.126Z,-0.9
2019-01-11T14:43:31.136Z,-1
2019-01-11T14:44:21.191Z,-1
2019-01-11T14:45:10.961Z,-1
2019-01-11T14:46:01.578Z,-1.1
2019-01-11T14:46:51.638Z,-1
2019-01-11T14:47:41.751Z,-1.1
2019-01-11T14:48:31.203Z,-1.1
2019-01-11T14:49:21.793Z,-1.1
2019-01-11T14:50:11.326Z,-1.1
2019-01-11T14:51:01.653Z,-1.1
2019-01-11T14:51:51.705Z,-1.1
2019-01-11T14:52:41.789Z,-1.1
2019-01-11T14:53:31.538Z,-1.1
2019-01-11T14:54:21.878Z,-1.2
2019-01-11T14:55:11.920Z,-1.2
2019-01-11T14:56:01.970Z,-1.2
2019-01-11T14:56:52.310Z,-1.2
2019-01-11T14:57:42.373Z,-1.3
2019-01-11T14:58:32.426Z,-1.3
2019-01-11T14:59:22.202Z,-1.3
2019-01-11T15:00:12.310Z,-1.3
2019-01-11T15:01:02.703Z,-1.3
2019-01-11T15:01:52.725Z,-1.3
2019-01-11T15:02:42.701Z,-1.3
2019-01-11T15:03:32.518Z,-1.3
2019-01-11T15:04:22.833Z,-1.3
2019-01-11T15:05:12.312Z,-1.4
2019-01-11T15:06:02.938Z,-1.4
2019-01-11T15:06:52.716Z,-1.4
2019-01-11T15:07:43.038Z,-1.4
2019-01-11T15:08:32.833Z,-1.4
2019-01-11T15:09:23.167Z,-1.4
2019-01-11T15:10:12.935Z,-1.4
2019-01-11T15:11:02.999Z,-1.4
2019-01-11T15:11:53.057Z,-1.4
2019-01-11T15:12:42.842Z,-1.5
2019-01-11T15:13:33.142Z,-1.5
2019-01-11T15:14:23.222Z,-1.5
2019-01-11T15:15:13.545Z,-1.5
2019-01-11T15:16:03.321Z,-1.5
2019-01-11T15:16:53.655Z,-1.5
2019-01-11T15:17:43.734Z,-1.6
2019-01-11T15:18:33.229Z,-1.6
2019-01-11T15:19:23.549Z,-1.6
2019-01-11T15:20:13.616Z,-1.6
2019-01-11T15:21:03.388Z,-1.6
2019-01-11T15:21:53.995Z,-1.6
2019-01-11T15:22:43.219Z,-1.6
2019-01-11T15:23:33.851Z,-1.6
2019-01-11T15:24:23.883Z,-1.6
2019-01-11T15:25:14.216Z,-1.7
2019-01-11T15:26:04.281Z,-1.7
2019-01-11T15:26:54.331Z,-1.7
2019-01-11T15:27:44.119Z,-1.7
2019-01-11T15:28:34.178Z,-1.7
2019-01-11T15:29:24.498Z,-1.7
2019-01-11T15:30:14.273Z,-1.8
2019-01-11T15:31:04.602Z,-1.8
2019-01-11T15:31:54.656Z,-1.8
2019-01-11T15:32:44.456Z,-1.8
2019-01-11T15:33:34.226Z,-1.8
2019-01-11T15:34:24.568Z,-1.8
2019-01-11T15:35:14.338Z,-1.8
2019-01-11T15:36:04.948Z,-1.8
2019-01-11T15:36:55.002Z,-1.8
2019-01-11T15:37:44.804Z,-1.8
2019-01-11T15:38:35.129Z,-1.8
2019-01-11T15:39:24.914Z,-1.8
2019-01-11T15:40:14.960Z,-1.8
2019-01-11T15:41:05.302Z,-1.9
2019-01-11T15:41:55.065Z,-1.9
2019-01-11T15:42:45.397Z,-1.9
2019-01-11T15:43:35.459Z,-1.9
2019-01-11T15:44:24.938Z,-1.9
2019-01-11T15:45:15.007Z,-1.9
2019-01-11T15:46:05.673Z,-1.9
2019-01-11T15:46:55.677Z,-1.9
2019-01-11T15:47:45.740Z,-1.9
2019-01-11T15:48:35.520Z,-1.9
2019-01-11T15:49:25.884Z,-1.9
2019-01-11T15:50:15.898Z,-2
2019-01-11T15:51:05.959Z,-2
2019-01-11T15:51:55.732Z,-2
2019-01-11T15:52:46.073Z,-2
2019-01-11T15:53:36.142Z,-2
2019-01-11T15:54:25.616Z,-2
2019-01-11T15:55:16.279Z,-2
2019-01-11T15:56:05.765Z,-2
2019-01-11T15:56:56.086Z,-2
2019-01-11T15:57:46.464Z,-2.1
2019-01-11T15:58:36.184Z,-2.1
2019-01-11T15:59:26.249Z,-2.1
2019-01-11T16:00:16.566Z,-2.1
2019-01-11T16:01:06.364Z,-2.1
2019-01-11T16:01:56.674Z,-2.1
2019-01-11T16:02:46.454Z,-2.1
2019-01-11T16:03:36.253Z,-2.1
2019-01-11T16:04:26.858Z,-2.1
2019-01-11T16:05:16.628Z,-2.1
2019-01-11T16:06:06.966Z,-2.1
2019-01-11T16:06:57.016Z,-2.1
2019-01-11T16:07:46.526Z,-2.1
2019-01-11T16:08:36.861Z,-2.1
2019-01-11T16:09:26.963Z,-2.2
2019-01-11T16:10:16.688Z,-2.2
2019-01-11T16:11:07.031Z,-2.2
2019-01-11T16:11:56.832Z,-2.2
2019-01-11T16:12:47.299Z,-2.2
2019-01-11T16:13:37.196Z,-2.2
2019-01-11T16:14:27.246Z,-2.2
2019-01-11T16:15:17.296Z,-2.2
2019-01-11T16:16:07.361Z,-2.3
2019-01-11T16:16:57.422Z,-2.2
2019-01-11T16:17:47.740Z,-2.2